createdAt,value
2022-12-04T00:01:12.817Z,100213.41
2022-12-04T00:05:17.310Z,100210.81
2022-12-04T00:09:20.318Z,100217.81
2022-12-04T00:13:23.312Z,100207.47
2022-12-04T00:17:26.253Z,100211.81
2022-12-04T00:21:30.664Z,100214.44
2022-12-04T00:25:39.307Z,100216.13
2022-12-04T00:29:44.034Z,100217.91
2022-12-04T00:33:47.184Z,100222.22
2022-12-04T00:37:51.542Z,100227.53
2022-12-04T00:41:54.517Z,100224.06
2022-12-04T00:45:57.605Z,100222.38
2022-12-04T00:50:00.868Z,100234.56
2022-12-04T00:54:05.504Z,100224.97
2022-12-04T00:58:08.682Z,100229.44
2022-12-04T01:02:11.630Z,100232.06
2022-12-04T01:06:23.284Z,100236.44
2022-12-04T01:10:27.661Z,100232.06
2022-12-04T01:14:30.753Z,100231.19
2022-12-04T01:18:33.795Z,100232.03
2022-12-04T01:22:36.776Z,100236.41
2022-12-04T01:26:41.199Z,100238.97
2022-12-04T01:30:44.175Z,100245.22
2022-12-04T01:34:47.378Z,100237.53
2022-12-04T01:38:50.531Z,100236.72
2022-12-04T01:42:55.165Z,100227.22
2022-12-04T01:46:59.377Z,100232.34
2022-12-04T01:51:08.389Z,100227.03
2022-12-04T01:55:11.367Z,100220.00
2022-12-04T01:59:18.619Z,100212.16
2022-12-04T02:03:22.068Z,100203.50
2022-12-04T02:07:25.270Z,100213.13
2022-12-04T02:11:37.504Z,100212.38
2022-12-04T02:15:49.416Z,100207.13
2022-12-04T02:20:05.509Z,100207.97
2022-12-04T02:24:28.961Z,100196.69
2022-12-04T02:28:42.669Z,100207.91
2022-12-04T02:32:49.657Z,100218.41
2022-12-04T02:36:56.710Z,100214.06
2022-12-04T02:41:04.949Z,100199.28
2022-12-04T02:45:13.088Z,100206.31
2022-12-04T02:49:20.415Z,100195.75
2022-12-04T02:53:27.536Z,100202.69
2022-12-04T02:57:37.030Z,100207.81
2022-12-04T03:01:44.981Z,100204.19
2022-12-04T03:05:54.735Z,100207.63
2022-12-04T03:10:04.127Z,100198.06
2022-12-04T03:14:15.525Z,100189.28
2022-12-04T03:18:23.685Z,100187.44
2022-12-04T03:22:28.703Z,100190.00
2022-12-04T03:26:37.613Z,100191.69
2022-12-04T03:30:45.527Z,100197.69
2022-12-04T03:34:55.597Z,100194.19
2022-12-04T03:39:04.592Z,100194.16
2022-12-04T03:43:12.907Z,100201.13
2022-12-04T03:47:21.621Z,100196.81
2022-12-04T03:51:34.379Z,100203.06
2022-12-04T03:55:42.625Z,100196.09
2022-12-04T03:59:55.411Z,100200.50
2022-12-04T04:04:01.726Z,100190.09
2022-12-04T04:08:27.887Z,100191.03
2022-12-04T04:12:36.662Z,100184.88
2022-12-04T04:17:01.696Z,100187.53
2022-12-04T04:21:22.543Z,100178.84
2022-12-04T04:25:29.623Z,100177.91
2022-12-04T04:29:32.877Z,100174.47
2022-12-04T04:33:40.884Z,100170.31
2022-12-04T04:37:54.864Z,100181.59
2022-12-04T04:42:04.379Z,100168.44
2022-12-04T04:46:12.498Z,100167.50
2022-12-04T04:50:18.110Z,100170.22
2022-12-04T04:54:22.166Z,100178.88
2022-12-04T04:58:26.577Z,100169.28
2022-12-04T05:02:29.986Z,100168.31
2022-12-04T05:06:33.101Z,100161.31
2022-12-04T05:10:36.101Z,100158.66
2022-12-04T05:14:40.470Z,100164.75
2022-12-04T05:19:04.390Z,100162.13
2022-12-04T05:23:08.309Z,100167.22
2022-12-04T05:27:11.397Z,100167.16
2022-12-04T05:31:15.848Z,100167.06
2022-12-04T05:35:18.971Z,100177.50
2022-12-04T05:39:22.472Z,100180.00
2022-12-04T05:43:25.475Z,100180.84
2022-12-04T05:47:29.862Z,100174.66
2022-12-04T05:51:32.824Z,100172.09
2022-12-04T05:55:36.174Z,100180.59
2022-12-04T05:59:39.368Z,100187.53
2022-12-04T06:03:43.998Z,100186.53
2022-12-04T06:07:47.178Z,100182.19
2022-12-04T06:11:50.379Z,100197.75
2022-12-04T06:15:53.472Z,100192.44
2022-12-04T06:19:58.285Z,100201.91
2022-12-04T06:24:02.133Z,100204.47
2022-12-04T06:28:05.163Z,100199.13
2022-12-04T06:32:08.262Z,100200.91
2022-12-04T06:36:14.441Z,100207.72
2022-12-04T06:40:17.484Z,100210.31
2022-12-04T06:44:20.518Z,100206.69
2022-12-04T06:48:23.605Z,100207.47
2022-12-04T06:52:27.980Z,100203.03
2022-12-04T06:56:33.595Z,100199.50
2022-12-04T07:00:37.039Z,100212.44
2022-12-04T07:04:40.269Z,100219.34
2022-12-04T07:08:46.154Z,100215.88
2022-12-04T07:12:49.117Z,100211.56
2022-12-04T07:16:52.136Z,100217.69
2022-12-04T07:20:55.176Z,100227.19
2022-12-04T07:24:59.535Z,100228.91
2022-12-04T07:29:07.662Z,100231.59
2022-12-04T07:33:20.118Z,100238.72
2022-12-04T07:37:27.800Z,100236.16
2022-12-04T07:41:32.079Z,100240.63
2022-12-04T07:45:46.574Z,100242.19
2022-12-04T07:49:49.627Z,100227.41
2022-12-04T07:53:54.067Z,100223.00
2022-12-04T07:57:58.418Z,100221.22
2022-12-04T08:02:01.461Z,100222.00
2022-12-04T08:06:05.880Z,100221.97
2022-12-04T08:10:10.085Z,100232.25
2022-12-04T08:14:14.904Z,100233.13
2022-12-04T08:18:18.025Z,100244.38
2022-12-04T08:22:25.064Z,100240.03
2022-12-04T08:26:30.536Z,100232.25
2022-12-04T08:30:36.041Z,100232.25
2022-12-04T08:34:39.081Z,100214.69
2022-12-04T08:38:42.545Z,100220.72
2022-12-04T08:42:45.507Z,100222.50
2022-12-04T08:46:49.967Z,100225.88
2022-12-04T08:50:53.379Z,100234.50
2022-12-04T08:54:56.362Z,100244.94
2022-12-04T08:59:01.239Z,100241.59
2022-12-04T09:03:05.788Z,100243.38
2022-12-04T09:07:08.764Z,100239.16
2022-12-04T09:11:14.713Z,100239.16
2022-12-04T09:15:18.420Z,100240.03
2022-12-04T09:19:23.064Z,100233.03
2022-12-04T09:23:26.830Z,100240.03
2022-12-04T09:27:29.856Z,100238.97
2022-12-04T09:31:34.038Z,100243.22
2022-12-04T09:35:39.677Z,100239.56
2022-12-04T09:39:42.669Z,100221.34
2022-12-04T09:43:53.413Z,100241.41
2022-12-04T09:47:59.521Z,100230.88
2022-12-04T09:52:10.669Z,100235.97
2022-12-04T09:56:19.913Z,100235.22
2022-12-04T10:00:23.547Z,100232.53
2022-12-04T10:04:26.821Z,100239.44
2022-12-04T10:08:35.961Z,100235.97
2022-12-04T10:12:51.450Z,100233.25
2022-12-04T10:17:14.634Z,100226.34
2022-12-04T10:21:33.858Z,100219.28
2022-12-04T10:25:40.142Z,100221.88
2022-12-04T10:29:44.801Z,100221.94
2022-12-04T10:33:52.007Z,100202.06
2022-12-04T10:37:58.755Z,100200.31
2022-12-04T10:42:12.505Z,100199.44
2022-12-04T10:46:17.815Z,100203.00
2022-12-04T10:50:22.972Z,100209.00
2022-12-04T10:54:32.737Z,100201.34
2022-12-04T10:58:37.151Z,100201.28
2022-12-04T11:02:40.832Z,100195.22
2022-12-04T11:06:44.161Z,100181.25
2022-12-04T11:10:47.201Z,100177.75
2022-12-04T11:15:01.155Z,100182.03
2022-12-04T11:19:04.622Z,100171.63
2022-12-04T11:23:07.670Z,100169.00
2022-12-04T11:27:20.866Z,100160.28
2022-12-04T11:31:25.674Z,100168.25
2022-12-04T11:35:30.965Z,100154.38
2022-12-04T11:39:37.994Z,100154.44
2022-12-04T11:43:51.404Z,100152.72
2022-12-04T11:48:00.438Z,100139.72
2022-12-04T11:52:23.580Z,100133.63
2022-12-04T11:56:32.736Z,100122.13
2022-12-04T12:00:40.635Z,100123.84
2022-12-04T12:05:03.980Z,100118.69
2022-12-04T12:09:23.662Z,100109.88
2022-12-04T12:13:36.618Z,100114.22
2022-12-04T12:17:47.198Z,100109.84
2022-12-04T12:22:05.165Z,100114.22
2022-12-04T12:26:12.284Z,100122.97
2022-12-04T12:30:19.173Z,100125.53
2022-12-04T12:34:36.235Z,100118.63
2022-12-04T12:38:45.448Z,100114.28
2022-12-04T12:42:58.202Z,100105.75
2022-12-04T12:47:08.113Z,100095.41
2022-12-04T12:51:30.034Z,100095.47
2022-12-04T12:55:40.360Z,100087.66
2022-12-04T12:59:49.354Z,100085.03
2022-12-04T13:03:59.808Z,100093.72
2022-12-04T13:08:15.947Z,100097.25
2022-12-04T13:12:23.711Z,100096.56
2022-12-04T13:16:31.196Z,100102.66
2022-12-04T13:20:40.343Z,100100.09
2022-12-04T13:24:55.341Z,100092.22
2022-12-04T13:29:10.091Z,100093.91
2022-12-04T13:34:04.463Z,100082.63
2022-12-04T13:38:20.822Z,100096.75
2022-12-04T13:42:27.052Z,100095.06
2022-12-04T13:46:35.853Z,100094.25
2022-12-04T13:50:41.557Z,100104.69
2022-12-04T13:54:44.975Z,100100.44
2022-12-04T13:58:47.961Z,100102.28
2022-12-04T14:02:55.633Z,100109.25
2022-12-04T14:07:01.639Z,100107.59
2022-12-04T14:11:08.250Z,100115.53
2022-12-04T14:15:23.319Z,100118.97
2022-12-04T14:19:35.646Z,100129.41
2022-12-04T14:23:41.303Z,100128.59
2022-12-04T14:27:45.557Z,100127.81
2022-12-04T14:31:48.531Z,100127.81
2022-12-04T14:36:00.732Z,100132.16
2022-12-04T14:40:07.305Z,100126.13
2022-12-04T14:44:25.368Z,100129.75
2022-12-04T14:48:41.842Z,100120.25
2022-12-04T14:52:54.193Z,100114.09
2022-12-04T14:57:12.901Z,100110.56
2022-12-04T15:01:28.656Z,100111.44
2022-12-04T15:05:34.249Z,100108.78
2022-12-04T15:09:56.292Z,100110.47
2022-12-04T15:14:12.714Z,100100.84
2022-12-04T15:18:17.928Z,100099.88
2022-12-04T15:22:24.815Z,100100.56
2022-12-04T15:26:29.579Z,100091.69
2022-12-04T15:30:35.598Z,100078.59
2022-12-04T15:34:43.049Z,100078.53
2022-12-04T15:38:47.968Z,100078.53
2022-12-04T15:42:53.114Z,100076.84
2022-12-04T15:46:57.782Z,100089.13
2022-12-04T15:51:05.058Z,100089.03
2022-12-04T15:55:10.131Z,100091.63
2022-12-04T15:59:19.145Z,100084.63
2022-12-04T16:03:26.575Z,100089.75
2022-12-04T16:07:30.906Z,100099.31
2022-12-04T16:11:37.443Z,100107.97
2022-12-04T16:15:43.956Z,100108.94
2022-12-04T16:19:47.259Z,100106.94
2022-12-04T16:23:50.969Z,100108.69
2022-12-04T16:27:53.949Z,100117.22
2022-12-04T16:32:02.893Z,100111.00
2022-12-04T16:36:07.288Z,100118.81
2022-12-04T16:40:12.008Z,100122.34
2022-12-04T16:44:16.809Z,100134.38
2022-12-04T16:48:21.466Z,100135.13
2022-12-04T16:52:24.524Z,100134.53
2022-12-04T16:56:27.517Z,100143.28
2022-12-04T17:00:30.620Z,100146.75
2022-12-04T17:04:35.076Z,100150.34
2022-12-04T17:08:38.134Z,100147.78
2022-12-04T17:12:41.414Z,100133.75
2022-12-04T17:16:46.698Z,100139.66
2022-12-04T17:20:51.132Z,100136.97
2022-12-04T17:24:56.217Z,100138.81
2022-12-04T17:28:59.486Z,100141.44
2022-12-04T17:33:02.696Z,100144.09
2022-12-04T17:37:07.077Z,100146.75
2022-12-04T17:41:13.685Z,100151.88
2022-12-04T17:45:17.096Z,100144.09
2022-12-04T17:49:20.378Z,100149.38
2022-12-04T17:53:24.815Z,100140.63
2022-12-04T17:57:28.767Z,100150.28
2022-12-04T18:01:32.486Z,100143.28
2022-12-04T18:05:35.752Z,100152.13
2022-12-04T18:09:40.394Z,100142.63
2022-12-04T18:13:43.751Z,100137.50
2022-12-04T18:17:46.796Z,100136.56
2022-12-04T18:21:50.178Z,100138.25
2022-12-04T18:25:57.423Z,100139.94
2022-12-04T18:30:01.578Z,100144.34
2022-12-04T18:34:06.501Z,100142.66
2022-12-04T18:38:13.767Z,100150.56
2022-12-04T18:42:18.247Z,100147.06
2022-12-04T18:46:22.401Z,100136.56
2022-12-04T18:50:25.443Z,100135.69
2022-12-04T18:54:28.496Z,100136.63
2022-12-04T18:58:32.915Z,100127.00
2022-12-04T19:02:36.107Z,100121.72
2022-12-04T19:06:40.820Z,100122.66
2022-12-04T19:10:43.878Z,100137.44
2022-12-04T19:14:48.267Z,100127.91
2022-12-04T19:18:51.371Z,100113.91
2022-12-04T19:22:54.931Z,100120.81
2022-12-04T19:26:57.925Z,100112.91
2022-12-04T19:31:02.257Z,100115.53
2022-12-04T19:35:05.779Z,100112.06
2022-12-04T19:39:09.705Z,100115.53
2022-12-04T19:43:13.944Z,100115.53
2022-12-04T19:47:19.360Z,100116.41
2022-12-04T19:51:22.919Z,100118.13
2022-12-04T19:55:25.905Z,100117.28
2022-12-04T19:59:34.613Z,100121.63
2022-12-04T20:03:41.646Z,100119.84
2022-12-04T20:07:44.658Z,100112.91
2022-12-04T20:11:48.029Z,100110.22
2022-12-04T20:15:51.337Z,100104.88
2022-12-04T20:19:56.380Z,100096.03
2022-12-04T20:24:02.216Z,100096.03
2022-12-04T20:28:08.990Z,100080.38
2022-12-04T20:32:14.398Z,100074.94
2022-12-04T20:36:21.298Z,100068.91
2022-12-04T20:40:24.623Z,100065.38
2022-12-04T20:44:27.821Z,100068.78
2022-12-04T20:48:30.729Z,100074.00
2022-12-04T20:52:35.241Z,100073.22
2022-12-04T20:56:39.459Z,100066.31
2022-12-04T21:00:42.559Z,100070.69
2022-12-04T21:04:45.675Z,100050.66
2022-12-04T21:08:55.802Z,100055.81
2022-12-04T21:13:16.729Z,100040.13
2022-12-04T21:17:21.193Z,100029.69
2022-12-04T21:21:24.377Z,100029.69
2022-12-04T21:25:28.687Z,100017.50
2022-12-04T21:29:33.174Z,100017.44
2022-12-04T21:33:40.948Z,100020.94
2022-12-04T21:37:44.355Z,100008.81
2022-12-04T21:42:06.655Z,100005.41
2022-12-04T21:46:10.323Z,100004.66
2022-12-04T21:50:13.294Z,100014.31
2022-12-04T21:54:16.194Z,100007.50
2022-12-04T21:58:21.399Z,99990.06
2022-12-04T22:02:25.690Z,99986.63
2022-12-04T22:06:28.853Z,99974.44
2022-12-04T22:10:31.787Z,99961.53
2022-12-04T22:14:36.257Z,99955.44
2022-12-04T22:18:39.841Z,99961.47
2022-12-04T22:22:42.810Z,99961.53
2022-12-04T22:26:45.745Z,99936.28
2022-12-04T22:30:50.132Z,99943.25
2022-12-04T22:34:53.093Z,99917.16
2022-12-04T22:39:09.510Z,99915.44
2022-12-04T22:43:13.288Z,99915.56
2022-12-04T22:47:17.637Z,99908.53
2022-12-04T22:51:22.182Z,99922.50
2022-12-04T22:55:25.435Z,99915.59
2022-12-04T22:59:28.586Z,99922.50
2022-12-04T23:03:33.009Z,99920.81
2022-12-04T23:07:36.858Z,99905.16
2022-12-04T23:11:40.915Z,99906.84
2022-12-04T23:15:43.902Z,99879.94
2022-12-04T23:19:48.389Z,99877.22
2022-12-04T23:23:53.830Z,99855.47
2022-12-04T23:27:56.714Z,99861.56
2022-12-04T23:31:59.698Z,99876.34
2022-12-04T23:36:06.219Z,99872.91
2022-12-04T23:40:10.148Z,99864.16
2022-12-04T23:44:13.055Z,99867.69
2022-12-04T23:48:15.950Z,99869.47
2022-12-04T23:52:20.402Z,99894.66
2022-12-04T23:56:25.045Z,99900.75
